Stations météo

réclame
Mon MeteoGroup
Hoerby, Suède (2623): Température de l'air & dewpoint: 15.06.2018 12:00:00 - 21.06.2018 12:00:00 (CEST)Hoerby, Suède (2623): Vitesse du vent & gusts: 15.06.2018 12:00:00 - 21.06.2018 12:00:00 (CEST)Hoerby, Suède (2623): Direction du vent: 15.06.2018 12:00:00 - 21.06.2018 12:00:00 (CEST)Hoerby, Suède (2623): visibility: 15.06.2018 12:00:00 - 21.06.2018 12:00:00 (CEST)Hoerby, Suède (2623): Quantités de précipitations: 15.06.2018 12:00:00 - 21.06.2018 12:00:00 (CEST)
Date & Time tt [°C] td [°C] ff [km/h] ff [knt] fx [km/h] fx [knt] dd vv [km] rr [mm]
21.06.2018 12:00:00 13,1 8,2 13 7 29 16 WNW 42 0,0
21.06.2018 11:00:00 13,2 8,3 11 6 29 16 WNW 46 0,0
21.06.2018 10:00:00 13,9 8,7 10 6 29 16 W 40 0,0
21.06.2018 09:00:00 13,5 9,0 11 6 30 16 W 38 0,0
21.06.2018 08:00:00 13,5 8,3 11 6 37 20 W 45 0,0
21.06.2018 07:00:00 13,4 9,4 13 7 37 20 W 44 0,0
21.06.2018 06:00:00 14,2 11,5 17 9 36 20 W 20 0,0
21.06.2018 05:00:00 15,9 14,1 11 6 32 18 SW 16 0,1
21.06.2018 04:00:00 16,5 14,1 12 7 26 14 SW 17 0,0
21.06.2018 03:00:00 16,6 14,4 9 5 29 16 WSW 22 0,0
21.06.2018 02:00:00 17,1 14,2 12 6 29 16 SW 24 0,0
21.06.2018 01:00:00 17,7 14,4 11 6 29 16 SW 24 0,0
21.06.2018 00:00:00 18,2 14,5 9 5 27 15 SW 36 0,0
20.06.2018 23:00:00 18,8 14,1 9 5 23 13 SW 40 0,0
20.06.2018 22:00:00 19,7 14,1 10 5 29 16 WSW 50 0,0
20.06.2018 21:00:00 20,4 14,5 9 5 39 21 WSW 44 0,0
20.06.2018 20:00:00 21,4 14,5 16 9 43 23 SW 40 0,0
20.06.2018 19:00:00 21,8 14,4 18 10 45 24 SW 47 0,0
20.06.2018 18:00:00 22,0 14,1 16 9 45 24 SW 35 0,0
20.06.2018 17:00:00 22,2 14,3 17 9 43 23 SW 38 0,0
20.06.2018 16:00:00 21,9 14,5 16 9 40 22 SW 34 0,0
20.06.2018 15:00:00 21,4 14,3 16 9 35 19 SSW 30 0,0
20.06.2018 14:00:00 20,1 14,0 16 9 35 19 SSW 26 0,0
20.06.2018 13:00:00 18,1 13,2 17 9 33 18 SSW 22 0,0
20.06.2018 12:00:00 14,1 12,3 10 5 26 14 SSW 4,3 0,0
20.06.2018 11:00:00 14,9 8,6 15 8 27 15 SSW 24 0,0
20.06.2018 10:00:00 12,9 8,0 5 3 27 15 WSW 15 0,0
20.06.2018 09:00:00 14,8 8,7 9 5 23 12 WSW 25 0,0
20.06.2018 08:00:00 14,4 9,0 11 6 21 12 WSW 20 0,0
20.06.2018 07:00:00 12,9 9,0 8 4 18 10 W 19 0,0
20.06.2018 06:00:00 11,8 8,3 5 3 17 9 W 19 0,0
20.06.2018 05:00:00 11,4 8,1 6 3 19 10 WSW 19 0,0
20.06.2018 04:00:00 11,8 7,9 5 3 20 11 W 22 0,0
20.06.2018 03:00:00 12,1 7,6 8 4 20 11 W 21 0,0
20.06.2018 02:00:00 11,8 7,5 4 2 18 10 W 27 0,0
20.06.2018 01:00:00 12,1 7,4 4 2 24 13 WSW 25 0,0
20.06.2018 00:00:00 13,6 7,6 7 4 24 13 W 31 0,0
19.06.2018 23:00:00 14,3 6,9 8 5 30 16 W 34 0,0
19.06.2018 22:00:00 15,0 6,8 8 5 32 17 W 35 0,0
19.06.2018 21:00:00 16,3 6,1 13 7 38 20 W 33 0,0
19.06.2018 20:00:00 17,5 6,4 15 8 38 20 W 30 0,0
19.06.2018 19:00:00 18,4 5,6 16 9 37 20 W 38 0,0
19.06.2018 18:00:00 19,0 5,8 17 9 49 26 W 37 0,0
19.06.2018 17:00:00 19,8 7,8 19 10 49 26 W 32 0,0
19.06.2018 16:00:00 19,6 8,9 20 11 45 24 W 34 0,0
19.06.2018 15:00:00 21,5 9,1 19 10 48 26 W 36 0,0
19.06.2018 14:00:00 20,8 9,7 20 11 48 26 WNW 30 0,0
19.06.2018 13:00:00 19,8 10,2 18 10 40 22 W 28 0,0
19.06.2018 12:00:00 18,0 11,3 15 8 36 19 W 24 0,0
19.06.2018 11:00:00 18,1 11,4 13 7 34 18 W 22 0,0
19.06.2018 10:00:00 16,8 11,3 14 7 36 19 W 21 0,0
19.06.2018 09:00:00 15,8 10,8 12 6 36 19 W 23 0,0
19.06.2018 08:00:00 15,6 11,0 11 6 31 17 W 25 0,0
19.06.2018 07:00:00 14,9 10,9 14 7 27 14 WSW 23 0,0
19.06.2018 06:00:00 14,7 11,7 10 5 27 14 WSW 19 0,0
19.06.2018 05:00:00 15,2 12,3 9 5 27 14 WSW 19 0,0
19.06.2018 04:00:00 15,3 12,8 8 4 23 13 WSW 17 0,0
19.06.2018 03:00:00 15,6 13,3 8 5 23 13 WSW 16 0,0
19.06.2018 02:00:00 15,9 13,6 9 5 23 13 SW 17 0,0
19.06.2018 01:00:00 15,9 13,8 9 5 26 14 SW 18 0,0
19.06.2018 00:00:00 16,6 13,9 10 6 26 14 SW 18 0,0
18.06.2018 23:00:00 16,9 13,6 9 5 24 13 SSW 17 0,0
18.06.2018 22:00:00 17,2 12,7 8 4 24 13 SW 23 0,0
18.06.2018 21:00:00 17,6 12,1 8 4 24 13 SW 27 0,0
18.06.2018 20:00:00 18,0 12,0 10 5 27 14 SSW 28 0,0
18.06.2018 19:00:00 18,5 11,1 10 5 27 14 SW 29 0,0
18.06.2018 18:00:00 19,1 10,1 11 6 27 14 SW 35 0,0
18.06.2018 17:00:00 18,9 10,2 11 6 26 14 WSW 37 0,0
18.06.2018 16:00:00 18,5 10,6 12 6 35 19 SW 39 0,0
18.06.2018 15:00:00 18,5 10,6 11 6 35 19 SW 34 0,0
18.06.2018 14:00:00 18,9 9,9 13 7 31 17 SW 35 0,0
18.06.2018 13:00:00 20,5 9,4 11 6 31 17 SW 30 0,0
18.06.2018 12:00:00 18,4 9,2 14 7 27 15 SW 27 0,0
18.06.2018 11:00:00 18,2 9,5 11 6 29 16 WSW 37 0,0
18.06.2018 10:00:00 16,6 9,8 11 6 29 16 W 30 0,0
18.06.2018 09:00:00 16,7 9,9 11 6 25 14 WSW 29 0,0
18.06.2018 08:00:00 14,3 11,1 8 5 17 9 W 16 0,0
18.06.2018 07:00:00 13,2 10,7 4 2 15 8 W 17 0,0
18.06.2018 06:00:00 11,9 10,3 0 0 7 4 N 17 0,0
18.06.2018 05:00:00 11,7 9,8 0 0 7 4 N 22 0,0
18.06.2018 04:00:00 10,9 9,0 0 0 4 2 N 33 0,0
18.06.2018 03:00:00 10,0 7,9 2 1 5 3 S 41 0,0
18.06.2018 02:00:00 10,8 8,4 4 2 5 3 SSE 39 0,0
18.06.2018 01:00:00 11,0 8,6 0 0 16 9 N 41 0,0
18.06.2018 00:00:00 13,5 8,6 2 1 16 9 WSW 48 0,0
17.06.2018 23:00:00 15,0 8,5 4 2 15 8 WSW 47 0,0
17.06.2018 22:00:00 15,6 9,0 6 3 13 7 W 47 0,0
17.06.2018 21:00:00 16,5 10,8 4 2 20 11 SW 48 0,0
17.06.2018 20:00:00 17,4 10,3 5 3 22 12 W 43 0,0
17.06.2018 19:00:00 18,5 9,6 8 4 39 21 W 36 0,0
17.06.2018 18:00:00 17,8 6,9 13 7 40 22 W 50 0,0
17.06.2018 17:00:00 18,2 11,0 18 10 40 22 W 37 0,0
17.06.2018 16:00:00 20,0 10,1 13 7 34 19 WSW 33 0,0
17.06.2018 15:00:00 20,0 11,7 14 8 29 16 SW 24 0,0
17.06.2018 14:00:00 20,7 12,7 13 7 29 16 SW 26 0,0
17.06.2018 13:00:00 18,5 14,6 10 5 28 15 WSW 25 0,0
17.06.2018 12:00:00 19,2 14,2 11 6 20 11 SW 37 0,0
17.06.2018 11:00:00 16,6 15,0 6 4 12 7 WSW 16 0,3
17.06.2018 10:00:00 16,2 15,4 5 3 13 7 SE 8 1,8
17.06.2018 09:00:00 17,5 14,9 4 2 26 14 SSW 15 0,0
17.06.2018 08:00:00 17,0 14,5 7 4 26 14 ESE 17 0,0
17.06.2018 07:00:00 15,9 13,9 8 5 22 12 E 21 0,0
17.06.2018 06:00:00 14,5 13,4 11 6 23 13 E 18 0,0
17.06.2018 05:00:00 13,9 12,6 9 5 23 13 E 19 0,0
17.06.2018 04:00:00 13,5 11,6 14 8 24 13 E 30 0,0
17.06.2018 03:00:00 12,7 10,6 13 7 24 13 E 27 0,0
17.06.2018 02:00:00 12,9 10,6 14 8 24 13 E 30 1,1
17.06.2018 01:00:00 12,5 10,4 3 2 21 12 ENE 4,3 2,8
17.06.2018 00:00:00 14,7 8,9 11 6 21 11 E 46 0,0
16.06.2018 23:00:00 14,7 9,3 10 5 18 10 ESE 30 0,3
16.06.2018 22:00:00 16,7 7,3 11 6 18 10 SE 42 0,0
16.06.2018 21:00:00 17,0 7,3 8 4 18 10 ESE 42 0,0
16.06.2018 20:00:00 17,9 7,3 10 5 27 14 ESE 46 0,0
16.06.2018 19:00:00 18,6 7,4 10 5 27 14 ESE 39 0,0
16.06.2018 18:00:00 19,5 7,6 16 9 26 14 ESE 36 0,0
16.06.2018 17:00:00 21,0 6,9 12 6 25 14 SE 31 0,0
16.06.2018 16:00:00 20,7 6,2 13 7 25 14 SE 39 0,0
16.06.2018 15:00:00 20,5 8,2 14 8 24 13 SSE 26 0,0
16.06.2018 14:00:00 20,4 7,7 10 5 18 10 SE 33 0,0
16.06.2018 13:00:00 19,4 8,1 4 2 18 10 SSE 35 0,0
16.06.2018 12:00:00 19,5 6,2 6 4 14 7 S 33 0,0
16.06.2018 11:00:00 19,6 7,3 4 2 15 8 W 32 0,0
16.06.2018 10:00:00 19,6 8,3 5 3 15 8 SSW 15 0,0
16.06.2018 09:00:00 18,5 10,1 6 3 13 7 SW 30 0,0
16.06.2018 08:00:00 17,1 10,5 8 4 11 6 SSE 23 0,0
16.06.2018 07:00:00 14,9 7,0 4 2 9 5 SE 44 0,0
16.06.2018 06:00:00 10,9 7,0 4 2 6 3 E 43 0,0
16.06.2018 05:00:00 8,4 6,2 3 1 5 3 NE 38 0,0
16.06.2018 04:00:00 8,8 6,4 3 2 5 3 NE 42 0,0
16.06.2018 03:00:00 8,7 6,3 2 1 4 2 ENE 42 0,0
16.06.2018 02:00:00 8,3 6,3 0 0 4 2 N 40 0,0
16.06.2018 01:00:00 8,9 6,2 2 1 4 2 NE 45 0,0
16.06.2018 00:00:00 10,0 6,3 2 1 4 2 ENE 48 0,0
15.06.2018 23:00:00 10,8 6,4 0 0 7 4 N 45 0,0
15.06.2018 22:00:00 13,0 6,8 3 2 10 5 NNE 38 0,0
15.06.2018 21:00:00 16,1 6,0 2 1 22 12 NNW 41 0,0
15.06.2018 20:00:00 18,8 4,2 7 4 22 12 NW 44 0,0
15.06.2018 19:00:00 19,4 4,7 9 5 24 13 WNW 37 0,0
15.06.2018 18:00:00 20,5 6,4 11 6 24 13 WNW 29 0,0
15.06.2018 17:00:00 20,4 5,6 9 5 24 13 W 34 0,0
15.06.2018 16:00:00 21,0 6,9 10 6 27 14 W 28 0,0
15.06.2018 15:00:00 20,7 7,0 11 6 27 15 W 28 0,0
15.06.2018 14:00:00 20,7 8,7 10 5 27 15 W 30 0,0
15.06.2018 13:00:00 20,6 9,2 9 5 23 12 W 27 0,0
15.06.2018 12:00:00 18,7 9,5 11 6 23 12 W 24 0,0

tt = Température de l'air
td = dewpoint
ff = Vitesse du vent
fx = gusts
dd = Direction du vent
vv = visibility
rr = Quantités de précipitations

stations d'obs. à proximité